sensor_id;sensor_type;location;lat;lon;timestamp;pressure;altitude;pressure_sealevel;temperature;humidity
24390;BME280;12510;56.468;-3.004;2023-02-12T00:01:24;102255.56;;;21.76;62.44
24390;BME280;12510;56.468;-3.004;2023-02-12T00:03:50;102259.44;;;21.41;66.16
24390;BME280;12510;56.468;-3.004;2023-02-12T00:06:17;102256.25;;;21.54;62.78
24390;BME280;12510;56.468;-3.004;2023-02-12T00:08:43;102261.13;;;18.82;66.72
24390;BME280;12510;56.468;-3.004;2023-02-12T00:11:15;102284.94;;;16.73;86.76
24390;BME280;12510;56.468;-3.004;2023-02-12T00:13:42;102293.38;;;16.06;97.05
24390;BME280;12510;56.468;-3.004;2023-02-12T00:16:13;102291.06;;;16.54;96.53
24390;BME280;12510;56.468;-3.004;2023-02-12T00:18:40;102270.47;;;19.32;85.41
24390;BME280;12510;56.468;-3.004;2023-02-12T00:21:07;102287.53;;;16.44;94.46
24390;BME280;12510;56.468;-3.004;2023-02-12T00:23:34;102296.50;;;16.42;97.84
24390;BME280;12510;56.468;-3.004;2023-02-12T00:26:05;102294.22;;;16.38;97.69
24390;BME280;12510;56.468;-3.004;2023-02-12T00:28:32;102289.69;;;17.39;100.00
24390;BME280;12510;56.468;-3.004;2023-02-12T00:31:07;102283.38;;;16.20;98.56
24390;BME280;12510;56.468;-3.004;2023-02-12T00:33:33;102280.91;;;18.34;97.63
24390;BME280;12510;56.468;-3.004;2023-02-12T00:36:00;102283.72;;;16.36;93.25
24390;BME280;12510;56.468;-3.004;2023-02-12T00:38:26;102293.34;;;15.97;100.00
24390;BME280;12510;56.468;-3.004;2023-02-12T00:40:53;102276.34;;;17.59;91.47
24390;BME280;12510;56.468;-3.004;2023-02-12T00:43:19;102296.56;;;16.00;100.00
24390;BME280;12510;56.468;-3.004;2023-02-12T00:45:46;102280.97;;;17.28;93.31
24390;BME280;12510;56.468;-3.004;2023-02-12T00:48:14;102291.66;;;15.96;100.00
24390;BME280;12510;56.468;-3.004;2023-02-12T00:50:44;102286.44;;;15.73;100.00
24390;BME280;12510;56.468;-3.004;2023-02-12T00:53:11;102284.34;;;15.88;100.00
24390;BME280;12510;56.468;-3.004;2023-02-12T00:55:37;102287.44;;;15.93;100.00
24390;BME280;12510;56.468;-3.004;2023-02-12T00:58:04;102271.28;;;15.64;100.00
24390;BME280;12510;56.468;-3.004;2023-02-12T01:00:30;102279.84;;;15.46;100.00
24390;BME280;12510;56.468;-3.004;2023-02-12T01:02:57;102283.44;;;15.45;100.00
24390;BME280;12510;56.468;-3.004;2023-02-12T01:05:24;102267.94;;;19.75;92.03
24390;BME280;12510;56.468;-3.004;2023-02-12T01:07:52;102259.69;;;19.42;83.66
24390;BME280;12510;56.468;-3.004;2023-02-12T01:10:19;102250.66;;;19.87;77.40
24390;BME280;12510;56.468;-3.004;2023-02-12T01:12:46;102240.06;;;18.61;74.70
24390;BME280;12510;56.468;-3.004;2023-02-12T01:15:14;102270.16;;;16.08;97.37
24390;BME280;12510;56.468;-3.004;2023-02-12T01:17:41;102253.31;;;18.53;88.80
24390;BME280;12510;56.468;-3.004;2023-02-12T01:20:10;102258.19;;;18.30;86.35
24390;BME280;12510;56.468;-3.004;2023-02-12T01:22:37;102275.41;;;15.35;100.00
24390;BME280;12510;56.468;-3.004;2023-02-12T01:25:05;102266.03;;;15.31;100.00
24390;BME280;12510;56.468;-3.004;2023-02-12T01:27:32;102275.66;;;17.18;100.00
24390;BME280;12510;56.468;-3.004;2023-02-12T01:29:59;102259.63;;;16.79;89.08
24390;BME280;12510;56.468;-3.004;2023-02-12T01:32:25;102264.78;;;15.78;97.90
24390;BME280;12510;56.468;-3.004;2023-02-12T01:34:52;102272.00;;;16.08;100.00
24390;BME280;12510;56.468;-3.004;2023-02-12T01:37:21;102266.53;;;16.09;98.00
24390;BME280;12510;56.468;-3.004;2023-02-12T01:39:47;102261.13;;;15.69;100.00
24390;BME280;12510;56.468;-3.004;2023-02-12T01:42:15;102267.44;;;15.78;100.00
24390;BME280;12510;56.468;-3.004;2023-02-12T01:45:37;102261.69;;;15.72;100.00
24390;BME280;12510;56.468;-3.004;2023-02-12T01:47:31;102263.66;;;15.91;100.00
24390;BME280;12510;56.468;-3.004;2023-02-12T01:49:58;102271.50;;;18.67;98.33
24390;BME280;12510;56.468;-3.004;2023-02-12T01:52:29;102257.22;;;19.93;88.71
24390;BME280;12510;56.468;-3.004;2023-02-12T01:55:02;102265.66;;;16.30;92.72
24390;BME280;12510;56.468;-3.004;2023-02-12T01:57:35;102262.25;;;16.59;90.64
24390;BME280;12510;56.468;-3.004;2023-02-12T02:00:08;102272.09;;;16.28;94.54
24390;BME280;12510;56.468;-3.004;2023-02-12T02:02:42;102275.53;;;16.18;94.86
24390;BME280;12510;56.468;-3.004;2023-02-12T02:05:10;102282.28;;;16.22;97.67
24390;BME280;12510;56.468;-3.004;2023-02-12T02:07:39;102283.50;;;16.49;92.45
24390;BME280;12510;56.468;-3.004;2023-02-12T02:10:07;102277.09;;;16.21;95.76
24390;BME280;12510;56.468;-3.004;2023-02-12T02:12:34;102261.06;;;16.92;86.67
24390;BME280;12510;56.468;-3.004;2023-02-12T02:15:20;102244.56;;;18.61;81.24
24390;BME280;12510;56.468;-3.004;2023-02-12T02:32:22;102270.56;;;16.04;95.55
24390;BME280;12510;56.468;-3.004;2023-02-12T02:35:11;102237.50;;;20.88;72.67
24390;BME280;12510;56.468;-3.004;2023-02-12T02:38:42;102273.19;;;15.94;92.35
24390;BME280;12510;56.468;-3.004;2023-02-12T02:43:44;102233.06;;;20.54;73.67
24390;BME280;12510;56.468;-3.004;2023-02-12T02:46:32;102230.06;;;20.65;67.34
24390;BME280;12510;56.468;-3.004;2023-02-12T02:49:08;102266.84;;;16.16;89.23
24390;BME280;12510;56.468;-3.004;2023-02-12T02:51:40;102270.78;;;15.91;95.02
24390;BME280;12510;56.468;-3.004;2023-02-12T02:54:16;102251.31;;;16.52;83.12
24390;BME280;12510;56.468;-3.004;2023-02-12T02:56:46;102270.22;;;16.18;91.04
24390;BME280;12510;56.468;-3.004;2023-02-12T02:59:22;102263.91;;;15.88;93.64
24390;BME280;12510;56.468;-3.004;2023-02-12T03:01:55;102259.97;;;15.83;91.75
24390;BME280;12510;56.468;-3.004;2023-02-12T03:04:35;102261.31;;;15.98;93.55
24390;BME280;12510;56.468;-3.004;2023-02-12T03:07:16;102258.19;;;16.14;90.04
24390;BME280;12510;56.468;-3.004;2023-02-12T03:09:53;102240.56;;;17.71;79.08
24390;BME280;12510;56.468;-3.004;2023-02-12T03:12:27;102260.41;;;16.59;87.58
24390;BME280;12510;56.468;-3.004;2023-02-12T03:15:02;102261.56;;;16.26;89.27
24390;BME280;12510;56.468;-3.004;2023-02-12T03:17:34;102266.72;;;16.18;89.81
24390;BME280;12510;56.468;-3.004;2023-02-12T03:20:10;102255.16;;;16.79;84.50
24390;BME280;12510;56.468;-3.004;2023-02-12T03:22:41;102260.53;;;16.07;89.31
24390;BME280;12510;56.468;-3.004;2023-02-12T03:25:17;102255.19;;;16.38;89.20
24390;BME280;12510;56.468;-3.004;2023-02-12T03:28:07;102266.28;;;16.53;88.17
24390;BME280;12510;56.468;-3.004;2023-02-12T03:30:47;102265.91;;;15.96;91.53
24390;BME280;12510;56.468;-3.004;2023-02-12T03:35:58;102265.03;;;16.48;89.86
24390;BME280;12510;56.468;-3.004;2023-02-12T03:38:30;102274.97;;;16.15;89.48
24390;BME280;12510;56.468;-3.004;2023-02-12T03:41:31;102244.25;;;20.49;71.59
24390;BME280;12510;56.468;-3.004;2023-02-12T03:51:39;102255.78;;;17.99;77.77
24390;BME280;12510;56.468;-3.004;2023-02-12T03:54:08;102281.16;;;16.25;88.37
24390;BME280;12510;56.468;-3.004;2023-02-12T03:56:46;102283.47;;;15.66;92.71
24390;BME280;12510;56.468;-3.004;2023-02-12T03:59:18;102268.66;;;15.85;90.72
24390;BME280;12510;56.468;-3.004;2023-02-12T04:01:46;102267.19;;;18.29;84.81
24390;BME280;12510;56.468;-3.004;2023-02-12T04:04:13;102258.97;;;16.36;83.79
24390;BME280;12510;56.468;-3.004;2023-02-12T04:06:40;102273.66;;;15.46;93.87
24390;BME280;12510;56.468;-3.004;2023-02-12T04:09:09;102271.25;;;15.21;96.87
24390;BME280;12510;56.468;-3.004;2023-02-12T04:12:01;102271.09;;;15.23;98.29
24390;BME280;12510;56.468;-3.004;2023-02-12T04:17:39;102263.44;;;15.41;96.38
24390;BME280;12510;56.468;-3.004;2023-02-12T04:20:40;102260.66;;;15.64;95.44
24390;BME280;12510;56.468;-3.004;2023-02-12T04:33:51;102242.50;;;19.18;72.32
24390;BME280;12510;56.468;-3.004;2023-02-12T04:36:26;102261.03;;;16.32;82.91
24390;BME280;12510;56.468;-3.004;2023-02-12T04:38:58;102270.44;;;16.36;85.18
24390;BME280;12510;56.468;-3.004;2023-02-12T04:41:26;102270.03;;;16.41;86.91
24390;BME280;12510;56.468;-3.004;2023-02-12T04:43:53;102253.56;;;18.59;76.22
24390;BME280;12510;56.468;-3.004;2023-02-12T04:46:20;102268.84;;;16.24;84.40
24390;BME280;12510;56.468;-3.004;2023-02-12T04:48:53;102280.41;;;16.13;89.27
24390;BME280;12510;56.468;-3.004;2023-02-12T04:51:19;102244.88;;;20.35;67.95
24390;BME280;12510;56.468;-3.004;2023-02-12T04:53:46;102249.72;;;20.39;66.66
24390;BME280;12510;56.468;-3.004;2023-02-12T04:56:14;102241.16;;;20.87;64.31
24390;BME280;12510;56.468;-3.004;2023-02-12T04:58:40;102245.19;;;20.91;63.85
24390;BME280;12510;56.468;-3.004;2023-02-12T05:01:07;102242.88;;;21.13;61.84
24390;BME280;12510;56.468;-3.004;2023-02-12T05:03:36;102262.59;;;18.21;72.08
24390;BME280;12510;56.468;-3.004;2023-02-12T05:06:05;102264.06;;;18.33;72.51
24390;BME280;12510;56.468;-3.004;2023-02-12T05:08:32;102260.69;;;18.59;71.26
24390;BME280;12510;56.468;-3.004;2023-02-12T05:11:06;102282.28;;;16.73;78.48
24390;BME280;12510;56.468;-3.004;2023-02-12T05:13:33;102277.75;;;16.54;83.05
24390;BME280;12510;56.468;-3.004;2023-02-12T05:16:03;102289.94;;;16.16;86.06
24390;BME280;12510;56.468;-3.004;2023-02-12T05:18:31;102293.56;;;16.46;85.79
24390;BME280;12510;56.468;-3.004;2023-02-12T05:20:59;102285.22;;;16.60;83.76
24390;BME280;12510;56.468;-3.004;2023-02-12T05:23:28;102274.31;;;18.38;75.97
24390;BME280;12510;56.468;-3.004;2023-02-12T05:25:57;102290.72;;;16.37;84.45
24390;BME280;12510;56.468;-3.004;2023-02-12T05:28:24;102295.25;;;16.47;85.37
24390;BME280;12510;56.468;-3.004;2023-02-12T05:30:51;102266.72;;;20.65;69.68
24390;BME280;12510;56.468;-3.004;2023-02-12T05:33:17;102262.94;;;21.41;62.06
24390;BME280;12510;56.468;-3.004;2023-02-12T05:35:44;102250.56;;;21.49;59.99
24390;BME280;12510;56.468;-3.004;2023-02-12T05:38:10;102258.56;;;20.83;61.29
24390;BME280;12510;56.468;-3.004;2023-02-12T05:40:36;102283.41;;;16.30;76.69
24390;BME280;12510;56.468;-3.004;2023-02-12T05:43:05;102290.13;;;16.24;84.26
24390;BME280;12510;56.468;-3.004;2023-02-12T05:45:32;102295.25;;;16.47;83.91
24390;BME280;12510;56.468;-3.004;2023-02-12T05:47:58;102288.47;;;16.73;83.74
24390;BME280;12510;56.468;-3.004;2023-02-12T05:50:25;102284.69;;;16.86;82.30
24390;BME280;12510;56.468;-3.004;2023-02-12T05:53:02;102280.34;;;16.75;79.65
24390;BME280;12510;56.468;-3.004;2023-02-12T05:55:28;102282.91;;;16.46;82.07
24390;BME280;12510;56.468;-3.004;2023-02-12T05:57:55;102280.28;;;16.55;81.77
24390;BME280;12510;56.468;-3.004;2023-02-12T06:00:21;102281.88;;;16.78;81.02
24390;BME280;12510;56.468;-3.004;2023-02-12T06:02:48;102287.31;;;16.66;81.91
24390;BME280;12510;56.468;-3.004;2023-02-12T06:05:14;102278.81;;;16.32;82.37
24390;BME280;12510;56.468;-3.004;2023-02-12T06:07:40;102254.72;;;20.34;69.82
24390;BME280;12510;56.468;-3.004;2023-02-12T06:10:07;102249.88;;;17.57;72.26
24390;BME280;12510;56.468;-3.004;2023-02-12T06:12:34;102270.06;;;17.21;76.68
24390;BME280;12510;56.468;-3.004;2023-02-12T06:15:00;102261.91;;;17.62;75.01
24390;BME280;12510;56.468;-3.004;2023-02-12T06:17:27;102257.88;;;17.08;75.34
24390;BME280;12510;56.468;-3.004;2023-02-12T06:19:53;102274.88;;;16.86;77.89
24390;BME280;12510;56.468;-3.004;2023-02-12T06:22:19;102271.44;;;17.25;76.75
24390;BME280;12510;56.468;-3.004;2023-02-12T06:24:46;102260.53;;;17.08;76.46
24390;BME280;12510;56.468;-3.004;2023-02-12T06:27:12;102255.19;;;17.48;74.65
24390;BME280;12510;56.468;-3.004;2023-02-12T06:29:39;102247.84;;;18.72;67.74
24390;BME280;12510;56.468;-3.004;2023-02-12T06:32:05;102252.09;;;17.62;72.65
24390;BME280;12510;56.468;-3.004;2023-02-12T06:34:33;102253.22;;;17.50;73.28
24390;BME280;12510;56.468;-3.004;2023-02-12T06:36:59;102257.13;;;17.65;72.11
24390;BME280;12510;56.468;-3.004;2023-02-12T06:39:26;102257.31;;;17.15;73.51
24390;BME280;12510;56.468;-3.004;2023-02-12T06:41:52;102252.94;;;17.33;72.94
24390;BME280;12510;56.468;-3.004;2023-02-12T06:44:19;102264.25;;;19.50;74.16
24390;BME280;12510;56.468;-3.004;2023-02-12T06:46:45;102257.28;;;18.49;71.80
24390;BME280;12510;56.468;-3.004;2023-02-12T06:49:12;102233.19;;;18.76;66.58
24390;BME280;12510;56.468;-3.004;2023-02-12T06:51:40;102242.16;;;19.03;65.68
24390;BME280;12510;56.468;-3.004;2023-02-12T06:54:12;102250.31;;;17.90;66.45
24390;BME280;12510;56.468;-3.004;2023-02-12T06:56:38;102261.94;;;17.13;73.02
24390;BME280;12510;56.468;-3.004;2023-02-12T06:59:05;102254.22;;;17.29;72.04
24390;BME280;12510;56.468;-3.004;2023-02-12T07:01:32;102263.75;;;17.22;73.21
24390;BME280;12510;56.468;-3.004;2023-02-12T07:04:00;102259.41;;;17.21;72.63
24390;BME280;12510;56.468;-3.004;2023-02-12T07:06:29;102270.66;;;16.64;75.10
24390;BME280;12510;56.468;-3.004;2023-02-12T07:08:56;102252.88;;;19.92;69.58
24390;BME280;12510;56.468;-3.004;2023-02-12T07:11:28;102262.19;;;17.68;70.05
24390;BME280;12510;56.468;-3.004;2023-02-12T07:13:55;102270.72;;;16.84;73.06
24390;BME280;12510;56.468;-3.004;2023-02-12T07:16:22;102274.00;;;16.66;73.44
24390;BME280;12510;56.468;-3.004;2023-02-12T07:18:48;102284.94;;;16.73;74.92
24390;BME280;12510;56.468;-3.004;2023-02-12T07:21:15;102280.59;;;16.62;74.76
24390;BME280;12510;56.468;-3.004;2023-02-12T07:23:47;102281.03;;;16.67;74.15
24390;BME280;12510;56.468;-3.004;2023-02-12T07:26:14;102281.00;;;17.18;70.70
24390;BME280;12510;56.468;-3.004;2023-02-12T07:28:41;102290.16;;;16.84;70.75
24390;BME280;12510;56.468;-3.004;2023-02-12T07:31:17;102285.34;;;17.19;69.87
24390;BME280;12510;56.468;-3.004;2023-02-12T07:33:44;102293.41;;;16.88;71.19
24390;BME280;12510;56.468;-3.004;2023-02-12T07:36:14;102277.19;;;19.00;69.32
24390;BME280;12510;56.468;-3.004;2023-02-12T07:38:41;102303.09;;;16.48;70.94
24390;BME280;12510;56.468;-3.004;2023-02-12T07:41:17;102298.06;;;16.55;72.87
24390;BME280;12510;56.468;-3.004;2023-02-12T07:43:45;102279.16;;;19.79;64.73
24390;BME280;12510;56.468;-3.004;2023-02-12T07:46:14;102256.22;;;20.71;56.99
24390;BME280;12510;56.468;-3.004;2023-02-12T07:48:43;102293.06;;;17.41;66.80
24390;BME280;12510;56.468;-3.004;2023-02-12T07:51:12;102289.59;;;16.30;71.84
24390;BME280;12510;56.468;-3.004;2023-02-12T07:53:39;102292.94;;;16.01;73.85
24390;BME280;12510;56.468;-3.004;2023-02-12T07:56:11;102293.59;;;16.96;67.90
24390;BME280;12510;56.468;-3.004;2023-02-12T07:58:39;102296.34;;;16.44;71.34
24390;BME280;12510;56.468;-3.004;2023-02-12T08:01:13;102309.38;;;16.16;73.75
24390;BME280;12510;56.468;-3.004;2023-02-12T08:03:40;102305.97;;;16.35;71.65
24390;BME280;12510;56.468;-3.004;2023-02-12T08:06:11;102302.16;;;15.97;72.87
24390;BME280;12510;56.468;-3.004;2023-02-12T08:08:38;102300.19;;;17.51;64.14
24390;BME280;12510;56.468;-3.004;2023-02-12T08:11:09;102298.09;;;16.65;66.86
24390;BME280;12510;56.468;-3.004;2023-02-12T08:13:36;102291.09;;;18.76;63.86
24390;BME280;12510;56.468;-3.004;2023-02-12T08:16:09;102310.78;;;16.51;70.62
24390;BME280;12510;56.468;-3.004;2023-02-12T08:18:36;102312.13;;;18.14;71.65
24390;BME280;12510;56.468;-3.004;2023-02-12T08:21:08;102316.34;;;16.38;70.76
24390;BME280;12510;56.468;-3.004;2023-02-12T08:23:35;102288.41;;;21.21;55.76
24390;BME280;12510;56.468;-3.004;2023-02-12T08:26:16;102311.66;;;17.32;61.43
24390;BME280;12510;56.468;-3.004;2023-02-12T08:28:52;102329.69;;;16.48;69.69
24390;BME280;12510;56.468;-3.004;2023-02-12T08:31:22;102338.41;;;16.29;71.55
24390;BME280;12510;56.468;-3.004;2023-02-12T08:33:50;102345.81;;;16.25;71.75
24390;BME280;12510;56.468;-3.004;2023-02-12T08:36:19;102307.28;;;20.95;58.95
24390;BME280;12510;56.468;-3.004;2023-02-12T08:38:47;102304.13;;;20.48;56.03
24390;BME280;12510;56.468;-3.004;2023-02-12T08:41:19;102332.38;;;16.58;65.02
24390;BME280;12510;56.468;-3.004;2023-02-12T08:43:47;102338.34;;;15.77;70.37
24390;BME280;12510;56.468;-3.004;2023-02-12T08:46:16;102342.69;;;15.99;72.22
24390;BME280;12510;56.468;-3.004;2023-02-12T08:48:43;102345.44;;;15.76;73.68
24390;BME280;12510;56.468;-3.004;2023-02-12T08:51:15;102343.09;;;16.16;71.46
24390;BME280;12510;56.468;-3.004;2023-02-12T08:53:44;102335.53;;;18.30;70.02
24390;BME280;12510;56.468;-3.004;2023-02-12T08:56:12;102349.25;;;15.95;70.91
24390;BME280;12510;56.468;-3.004;2023-02-12T08:58:39;102343.28;;;15.82;73.39
24390;BME280;12510;56.468;-3.004;2023-02-12T09:01:12;102346.53;;;16.06;73.62
24390;BME280;12510;56.468;-3.004;2023-02-12T09:03:39;102342.78;;;16.40;72.94
24390;BME280;12510;56.468;-3.004;2023-02-12T09:06:06;102333.25;;;17.19;68.17
24390;BME280;12510;56.468;-3.004;2023-02-12T09:08:35;102339.41;;;17.29;66.10
24390;BME280;12510;56.468;-3.004;2023-02-12T09:11:10;102337.72;;;17.08;67.37
24390;BME280;12510;56.468;-3.004;2023-02-12T09:13:38;102341.38;;;17.17;67.42
24390;BME280;12510;56.468;-3.004;2023-02-12T09:16:06;102338.00;;;16.34;70.66
24390;BME280;12510;56.468;-3.004;2023-02-12T09:18:33;102332.44;;;16.87;68.00
24390;BME280;12510;56.468;-3.004;2023-02-12T09:21:10;102335.72;;;16.91;68.29
24390;BME280;12510;56.468;-3.004;2023-02-12T09:23:37;102308.69;;;20.21;60.28
24390;BME280;12510;56.468;-3.004;2023-02-12T09:26:06;102304.81;;;21.51;54.20
24390;BME280;12510;56.468;-3.004;2023-02-12T09:28:33;102293.94;;;21.85;51.13
24390;BME280;12510;56.468;-3.004;2023-02-12T09:31:11;102287.09;;;22.39;49.96
24390;BME280;12510;56.468;-3.004;2023-02-12T09:33:38;102328.34;;;17.63;62.68
24390;BME280;12510;56.468;-3.004;2023-02-12T09:36:08;102328.91;;;17.57;64.90
24390;BME280;12510;56.468;-3.004;2023-02-12T09:38:35;102331.22;;;16.91;66.42
24390;BME280;12510;56.468;-3.004;2023-02-12T09:44:03;102330.84;;;16.96;66.93
24390;BME280;12510;56.468;-3.004;2023-02-12T09:52:30;102324.75;;;19.95;62.48
24390;BME280;12510;56.468;-3.004;2023-02-12T09:54:57;102326.56;;;17.44;62.54
24390;BME280;12510;56.468;-3.004;2023-02-12T09:57:32;102330.59;;;17.19;66.20
24390;BME280;12510;56.468;-3.004;2023-02-12T10:02:36;102307.78;;;18.22;59.79
24390;BME280;12510;56.468;-3.004;2023-02-12T10:05:24;102306.41;;;20.00;62.44
24390;BME280;12510;56.468;-3.004;2023-02-12T10:08:11;102314.34;;;17.41;64.19
24390;BME280;12510;56.468;-3.004;2023-02-12T10:10:51;102326.41;;;16.75;68.56
24390;BME280;12510;56.468;-3.004;2023-02-12T10:20:01;102332.47;;;16.47;72.40
24390;BME280;12510;56.468;-3.004;2023-02-12T10:25:17;102332.38;;;16.27;73.67
24390;BME280;12510;56.468;-3.004;2023-02-12T10:27:50;102326.19;;;16.98;72.52
24390;BME280;12510;56.468;-3.004;2023-02-12T10:30:38;102330.59;;;15.85;72.97
24390;BME280;12510;56.468;-3.004;2023-02-12T10:33:15;102331.00;;;16.33;72.36
24390;BME280;12510;56.468;-3.004;2023-02-12T10:35:47;102317.72;;;16.73;72.86
24390;BME280;12510;56.468;-3.004;2023-02-12T10:38:31;102325.63;;;16.54;72.56
24390;BME280;12510;56.468;-3.004;2023-02-12T10:41:00;102322.19;;;17.23;72.30
24390;BME280;12510;56.468;-3.004;2023-02-12T10:43:28;102315.13;;;16.93;70.90
24390;BME280;12510;56.468;-3.004;2023-02-12T10:45:55;102323.88;;;17.44;70.32
24390;BME280;12510;56.468;-3.004;2023-02-12T10:48:26;102329.88;;;17.17;71.80
24390;BME280;12510;56.468;-3.004;2023-02-12T10:53:40;102329.28;;;16.94;72.96
24390;BME280;12510;56.468;-3.004;2023-02-12T10:56:21;102322.31;;;17.61;71.09
24390;BME280;12510;56.468;-3.004;2023-02-12T10:59:00;102317.56;;;17.65;69.05
24390;BME280;12510;56.468;-3.004;2023-02-12T11:01:35;102312.94;;;17.28;72.03
24390;BME280;12510;56.468;-3.004;2023-02-12T11:07:00;102314.47;;;17.59;72.75
24390;BME280;12510;56.468;-3.004;2023-02-12T11:09:33;102308.94;;;17.90;72.33
24390;BME280;12510;56.468;-3.004;2023-02-12T11:12:01;102312.78;;;17.98;69.85
24390;BME280;12510;56.468;-3.004;2023-02-12T11:14:29;102310.75;;;18.19;69.27
24390;BME280;12510;56.468;-3.004;2023-02-12T11:16:58;102321.75;;;17.48;72.32
24390;BME280;12510;56.468;-3.004;2023-02-12T11:19:29;102314.63;;;17.38;72.79
24390;BME280;12510;56.468;-3.004;2023-02-12T11:22:09;102317.16;;;17.50;71.75
24390;BME280;12510;56.468;-3.004;2023-02-12T11:24:37;102305.59;;;17.88;71.06
24390;BME280;12510;56.468;-3.004;2023-02-12T11:29:42;102302.97;;;17.49;72.19
24390;BME280;12510;56.468;-3.004;2023-02-12T11:32:18;102298.16;;;18.39;69.65
24390;BME280;12510;56.468;-3.004;2023-02-12T11:35:04;102310.56;;;17.54;72.01
24390;BME280;12510;56.468;-3.004;2023-02-12T11:37:32;102305.72;;;18.06;71.82
24390;BME280;12510;56.468;-3.004;2023-02-12T11:40:02;102303.22;;;19.16;68.34
24390;BME280;12510;56.468;-3.004;2023-02-12T11:42:32;102298.16;;;18.95;66.18
24390;BME280;12510;56.468;-3.004;2023-02-12T11:45:01;102283.97;;;18.95;66.27
24390;BME280;12510;56.468;-3.004;2023-02-12T11:47:31;102276.88;;;19.03;65.68
24390;BME280;12510;56.468;-3.004;2023-02-12T11:50:07;102281.50;;;17.70;69.63
24390;BME280;12510;56.468;-3.004;2023-02-12T11:52:36;102277.41;;;18.89;65.21
24390;BME280;12510;56.468;-3.004;2023-02-12T11:55:26;102273.13;;;19.32;63.50
24390;BME280;12510;56.468;-3.004;2023-02-12T11:58:02;102265.28;;;18.49;63.50
24390;BME280;12510;56.468;-3.004;2023-02-12T12:01:03;102281.63;;;17.79;67.41
24390;BME280;12510;56.468;-3.004;2023-02-12T12:14:55;102265.66;;;18.26;63.74
24390;BME280;12510;56.468;-3.004;2023-02-12T12:17:48;102272.50;;;18.84;63.24
24390;BME280;12510;56.468;-3.004;2023-02-12T12:20:53;102263.25;;;18.33;64.04
24390;BME280;12510;56.468;-3.004;2023-02-12T12:23:31;102259.94;;;18.49;62.32
24390;BME280;12510;56.468;-3.004;2023-02-12T12:26:07;102248.78;;;18.35;61.37
24390;BME280;12510;56.468;-3.004;2023-02-12T12:29:05;102255.78;;;19.54;61.18
24390;BME280;12510;56.468;-3.004;2023-02-12T12:31:41;102247.78;;;18.82;59.20
24390;BME280;12510;56.468;-3.004;2023-02-12T12:34:18;102239.59;;;19.12;60.58
24390;BME280;12510;56.468;-3.004;2023-02-12T12:56:18;102244.41;;;19.52;59.00
24390;BME280;12510;56.468;-3.004;2023-02-12T13:05:05;102253.50;;;17.56;63.42
24390;BME280;12510;56.468;-3.004;2023-02-12T13:10:49;102235.72;;;18.60;61.61
24390;BME280;12510;56.468;-3.004;2023-02-12T13:16:30;102234.06;;;19.31;60.39
24390;BME280;12510;56.468;-3.004;2023-02-12T13:19:19;102232.97;;;18.52;61.15
24390;BME280;12510;56.468;-3.004;2023-02-12T13:24:44;102245.09;;;18.64;62.73
24390;BME280;12510;56.468;-3.004;2023-02-12T13:27:19;102244.66;;;17.66;65.71
24390;BME280;12510;56.468;-3.004;2023-02-12T13:29:50;102256.78;;;17.88;65.27
24390;BME280;12510;56.468;-3.004;2023-02-12T13:32:46;102236.53;;;18.42;63.42
24390;BME280;12510;56.468;-3.004;2023-02-12T13:35:19;102228.25;;;18.64;62.21
24390;BME280;12510;56.468;-3.004;2023-02-12T13:37:50;102241.34;;;18.01;63.75
24390;BME280;12510;56.468;-3.004;2023-02-12T13:40:23;102230.59;;;18.49;62.47
24390;BME280;12510;56.468;-3.004;2023-02-12T13:43:13;102231.81;;;19.18;60.10
24390;BME280;12510;56.468;-3.004;2023-02-12T13:56:45;102220.19;;;19.28;59.98
24390;BME280;12510;56.468;-3.004;2023-02-12T14:02:00;102224.13;;;18.51;62.93
24390;BME280;12510;56.468;-3.004;2023-02-12T14:04:33;102219.28;;;18.37;63.95
24390;BME280;12510;56.468;-3.004;2023-02-12T14:07:08;102224.81;;;17.98;65.02
24390;BME280;12510;56.468;-3.004;2023-02-12T14:15:05;102216.81;;;17.21;68.36
24390;BME280;12510;56.468;-3.004;2023-02-12T14:27:43;102205.94;;;18.65;63.13
24390;BME280;12510;56.468;-3.004;2023-02-12T14:35:38;102217.66;;;18.26;62.79
24390;BME280;12510;56.468;-3.004;2023-02-12T14:40:46;102230.25;;;17.29;69.08
24390;BME280;12510;56.468;-3.004;2023-02-12T14:43:42;102230.25;;;17.19;72.61
24390;BME280;12510;56.468;-3.004;2023-02-12T14:48:55;102248.78;;;16.51;77.51
24390;BME280;12510;56.468;-3.004;2023-02-12T14:51:34;102251.63;;;16.69;77.05
24390;BME280;12510;56.468;-3.004;2023-02-12T14:54:03;102237.13;;;16.32;78.99
24390;BME280;12510;56.468;-3.004;2023-02-12T14:56:38;102239.84;;;16.52;77.09
24390;BME280;12510;56.468;-3.004;2023-02-12T14:59:14;102229.16;;;17.12;73.66
24390;BME280;12510;56.468;-3.004;2023-02-12T15:01:42;102231.50;;;16.96;74.32
24390;BME280;12510;56.468;-3.004;2023-02-12T15:04:19;102222.78;;;18.09;69.77
24390;BME280;12510;56.468;-3.004;2023-02-12T15:07:28;102223.34;;;16.68;74.51
24390;BME280;12510;56.468;-3.004;2023-02-12T15:10:06;102227.16;;;15.94;77.26
24390;BME280;12510;56.468;-3.004;2023-02-12T15:12:45;102222.28;;;18.24;76.88
24390;BME280;12510;56.468;-3.004;2023-02-12T15:15:26;102214.38;;;17.57;69.43
24390;BME280;12510;56.468;-3.004;2023-02-12T15:18:45;102203.25;;;19.89;66.68
24390;BME280;12510;56.468;-3.004;2023-02-12T15:20:58;102197.38;;;18.15;64.54
24390;BME280;12510;56.468;-3.004;2023-02-12T15:23:39;102222.88;;;16.53;74.11
24390;BME280;12510;56.468;-3.004;2023-02-12T15:26:12;102185.97;;;21.02;59.46
24390;BME280;12510;56.468;-3.004;2023-02-12T15:28:39;102217.94;;;16.29;74.13
24390;BME280;12510;56.468;-3.004;2023-02-12T15:31:07;102223.94;;;15.69;79.31
24390;BME280;12510;56.468;-3.004;2023-02-12T15:33:39;102214.91;;;16.43;69.72
24390;BME280;12510;56.468;-3.004;2023-02-12T15:36:08;102222.84;;;17.90;74.36
24390;BME280;12510;56.468;-3.004;2023-02-12T15:38:38;102225.31;;;16.66;74.08
24390;BME280;12510;56.468;-3.004;2023-02-12T15:41:08;102233.09;;;16.07;77.47